sensor_id;sensor_type;location;lat;lon;timestamp;temperature;humidity
3466;DHT22;1747;48.884;9.160;2023-04-01T00:01:56;10.20;99.90
3466;DHT22;1747;48.884;9.160;2023-04-01T00:04:23;10.30;99.90
3466;DHT22;1747;48.884;9.160;2023-04-01T00:06:49;10.20;99.90
3466;DHT22;1747;48.884;9.160;2023-04-01T00:09:17;10.20;99.90
3466;DHT22;1747;48.884;9.160;2023-04-01T00:11:45;10.20;99.90
3466;DHT22;1747;48.884;9.160;2023-04-01T00:14:12;10.20;99.90
3466;DHT22;1747;48.884;9.160;2023-04-01T00:16:39;10.20;99.90
3466;DHT22;1747;48.884;9.160;2023-04-01T00:19:06;10.20;99.90
3466;DHT22;1747;48.884;9.160;2023-04-01T00:21:33;10.20;99.90
3466;DHT22;1747;48.884;9.160;2023-04-01T00:24:00;10.20;99.90
3466;DHT22;1747;48.884;9.160;2023-04-01T00:26:26;10.20;99.90
3466;DHT22;1747;48.884;9.160;2023-04-01T00:28:55;10.20;99.90
3466;DHT22;1747;48.884;9.160;2023-04-01T00:31:21;10.20;99.90
3466;DHT22;1747;48.884;9.160;2023-04-01T00:33:48;10.20;99.90
3466;DHT22;1747;48.884;9.160;2023-04-01T00:36:18;10.20;99.90
3466;DHT22;1747;48.884;9.160;2023-04-01T00:38:45;10.20;99.90
3466;DHT22;1747;48.884;9.160;2023-04-01T00:41:14;10.20;99.90
3466;DHT22;1747;48.884;9.160;2023-04-01T00:43:43;10.20;99.90
3466;DHT22;1747;48.884;9.160;2023-04-01T00:46:11;10.20;99.90
3466;DHT22;1747;48.884;9.160;2023-04-01T00:48:40;10.20;99.90
3466;DHT22;1747;48.884;9.160;2023-04-01T00:51:10;10.20;99.90
3466;DHT22;1747;48.884;9.160;2023-04-01T00:53:41;10.20;99.90
3466;DHT22;1747;48.884;9.160;2023-04-01T00:56:12;10.30;99.90
3466;DHT22;1747;48.884;9.160;2023-04-01T00:58:44;10.20;99.90
3466;DHT22;1747;48.884;9.160;2023-04-01T01:01:14;10.30;99.90
3466;DHT22;1747;48.884;9.160;2023-04-01T01:03:41;10.30;99.90
3466;DHT22;1747;48.884;9.160;2023-04-01T01:06:11;10.30;99.90
3466;DHT22;1747;48.884;9.160;2023-04-01T01:09:07;10.30;99.90
3466;DHT22;1747;48.884;9.160;2023-04-01T01:11:38;10.30;99.90
3466;DHT22;1747;48.884;9.160;2023-04-01T01:14:17;10.30;99.90
3466;DHT22;1747;48.884;9.160;2023-04-01T01:16:52;10.30;99.90
3466;DHT22;1747;48.884;9.160;2023-04-01T01:19:40;10.30;99.90
3466;DHT22;1747;48.884;9.160;2023-04-01T01:22:44;10.30;99.90
3466;DHT22;1747;48.884;9.160;2023-04-01T01:25:29;10.30;99.90
3466;DHT22;1747;48.884;9.160;2023-04-01T01:28:08;10.40;99.90
3466;DHT22;1747;48.884;9.160;2023-04-01T01:30:43;10.30;99.90
3466;DHT22;1747;48.884;9.160;2023-04-01T01:33:42;10.30;99.90
3466;DHT22;1747;48.884;9.160;2023-04-01T01:36:17;10.40;99.90
3466;DHT22;1747;48.884;9.160;2023-04-01T01:38:47;10.40;99.90
3466;DHT22;1747;48.884;9.160;2023-04-01T01:41:16;10.40;99.90
3466;DHT22;1747;48.884;9.160;2023-04-01T01:43:46;10.40;99.90
3466;DHT22;1747;48.884;9.160;2023-04-01T01:46:17;10.40;99.90
3466;DHT22;1747;48.884;9.160;2023-04-01T01:48:46;10.40;99.90
3466;DHT22;1747;48.884;9.160;2023-04-01T01:51:13;10.40;99.90
3466;DHT22;1747;48.884;9.160;2023-04-01T01:53:42;10.30;99.90
3466;DHT22;1747;48.884;9.160;2023-04-01T01:56:10;10.40;99.90
3466;DHT22;1747;48.884;9.160;2023-04-01T01:58:40;10.40;99.90
3466;DHT22;1747;48.884;9.160;2023-04-01T02:01:11;10.40;99.90
3466;DHT22;1747;48.884;9.160;2023-04-01T02:03:39;10.40;99.90
3466;DHT22;1747;48.884;9.160;2023-04-01T02:06:09;10.40;99.90
3466;DHT22;1747;48.884;9.160;2023-04-01T02:08:39;10.40;99.90
3466;DHT22;1747;48.884;9.160;2023-04-01T02:11:12;10.30;99.90
3466;DHT22;1747;48.884;9.160;2023-04-01T02:13:42;10.40;99.90
3466;DHT22;1747;48.884;9.160;2023-04-01T02:16:13;10.30;99.90
3466;DHT22;1747;48.884;9.160;2023-04-01T02:18:42;10.30;99.90
3466;DHT22;1747;48.884;9.160;2023-04-01T02:21:10;10.30;99.90
3466;DHT22;1747;48.884;9.160;2023-04-01T02:23:38;10.30;99.90
3466;DHT22;1747;48.884;9.160;2023-04-01T02:26:06;10.30;99.90
3466;DHT22;1747;48.884;9.160;2023-04-01T02:28:37;10.20;99.90
3466;DHT22;1747;48.884;9.160;2023-04-01T02:31:05;10.20;99.90
3466;DHT22;1747;48.884;9.160;2023-04-01T02:33:33;10.20;99.90
3466;DHT22;1747;48.884;9.160;2023-04-01T02:36:00;10.10;99.90
3466;DHT22;1747;48.884;9.160;2023-04-01T02:38:27;10.10;99.90
3466;DHT22;1747;48.884;9.160;2023-04-01T02:40:58;10.10;99.90
3466;DHT22;1747;48.884;9.160;2023-04-01T02:43:25;10.10;99.90
3466;DHT22;1747;48.884;9.160;2023-04-01T02:45:53;10.10;99.90
3466;DHT22;1747;48.884;9.160;2023-04-01T02:48:20;10.20;99.90
3466;DHT22;1747;48.884;9.160;2023-04-01T02:50:46;10.20;99.90
3466;DHT22;1747;48.884;9.160;2023-04-01T02:53:13;10.20;99.90
3466;DHT22;1747;48.884;9.160;2023-04-01T02:55:40;10.20;99.90
3466;DHT22;1747;48.884;9.160;2023-04-01T02:58:07;10.20;99.90
3466;DHT22;1747;48.884;9.160;2023-04-01T03:00:34;10.20;99.90
3466;DHT22;1747;48.884;9.160;2023-04-01T03:03:02;10.20;99.90
3466;DHT22;1747;48.884;9.160;2023-04-01T03:05:29;10.20;99.90
3466;DHT22;1747;48.884;9.160;2023-04-01T03:07:56;10.20;99.90
3466;DHT22;1747;48.884;9.160;2023-04-01T03:10:22;10.20;99.90
3466;DHT22;1747;48.884;9.160;2023-04-01T03:12:49;10.20;99.90
3466;DHT22;1747;48.884;9.160;2023-04-01T03:15:16;10.20;99.90
3466;DHT22;1747;48.884;9.160;2023-04-01T03:17:43;10.20;99.90
3466;DHT22;1747;48.884;9.160;2023-04-01T03:20:14;10.20;99.90
3466;DHT22;1747;48.884;9.160;2023-04-01T03:22:41;10.10;99.90
3466;DHT22;1747;48.884;9.160;2023-04-01T03:25:08;10.10;99.90
3466;DHT22;1747;48.884;9.160;2023-04-01T03:27:36;10.10;99.90
3466;DHT22;1747;48.884;9.160;2023-04-01T03:30:04;10.10;99.90
3466;DHT22;1747;48.884;9.160;2023-04-01T03:32:31;10.00;99.90
3466;DHT22;1747;48.884;9.160;2023-04-01T03:34:58;10.00;99.90
3466;DHT22;1747;48.884;9.160;2023-04-01T03:37:26;10.00;99.90
3466;DHT22;1747;48.884;9.160;2023-04-01T03:39:53;9.90;99.90
3466;DHT22;1747;48.884;9.160;2023-04-01T03:42:19;10.00;99.90
3466;DHT22;1747;48.884;9.160;2023-04-01T03:44:46;10.00;99.90
3466;DHT22;1747;48.884;9.160;2023-04-01T03:47:13;10.00;99.90
3466;DHT22;1747;48.884;9.160;2023-04-01T03:49:40;9.90;99.90
3466;DHT22;1747;48.884;9.160;2023-04-01T03:52:09;9.80;99.90
3466;DHT22;1747;48.884;9.160;2023-04-01T03:54:37;9.90;99.90
3466;DHT22;1747;48.884;9.160;2023-04-01T03:57:04;10.00;99.90
3466;DHT22;1747;48.884;9.160;2023-04-01T03:59:31;9.90;99.90
3466;DHT22;1747;48.884;9.160;2023-04-01T04:01:58;9.90;99.90
3466;DHT22;1747;48.884;9.160;2023-04-01T04:04:25;9.90;99.90
3466;DHT22;1747;48.884;9.160;2023-04-01T04:06:53;9.90;99.90
3466;DHT22;1747;48.884;9.160;2023-04-01T04:09:20;10.00;99.90
3466;DHT22;1747;48.884;9.160;2023-04-01T04:11:48;10.00;99.90
3466;DHT22;1747;48.884;9.160;2023-04-01T04:14:15;10.00;99.90
3466;DHT22;1747;48.884;9.160;2023-04-01T04:16:42;10.00;99.90
3466;DHT22;1747;48.884;9.160;2023-04-01T04:19:09;9.90;99.90
3466;DHT22;1747;48.884;9.160;2023-04-01T04:21:36;9.90;99.90
3466;DHT22;1747;48.884;9.160;2023-04-01T04:24:03;9.90;99.90
3466;DHT22;1747;48.884;9.160;2023-04-01T04:26:30;9.90;99.90
3466;DHT22;1747;48.884;9.160;2023-04-01T04:28:58;9.90;99.90
3466;DHT22;1747;48.884;9.160;2023-04-01T04:31:25;9.90;99.90
3466;DHT22;1747;48.884;9.160;2023-04-01T04:33:52;9.90;99.90
3466;DHT22;1747;48.884;9.160;2023-04-01T04:36:19;9.90;99.90
3466;DHT22;1747;48.884;9.160;2023-04-01T04:38:47;9.80;99.90
3466;DHT22;1747;48.884;9.160;2023-04-01T04:41:15;9.80;99.90
3466;DHT22;1747;48.884;9.160;2023-04-01T04:43:49;9.80;99.90
3466;DHT22;1747;48.884;9.160;2023-04-01T04:46:17;9.70;99.90
3466;DHT22;1747;48.884;9.160;2023-04-01T04:48:44;9.70;99.90
3466;DHT22;1747;48.884;9.160;2023-04-01T04:51:13;9.70;99.90
3466;DHT22;1747;48.884;9.160;2023-04-01T04:53:41;9.60;99.90
3466;DHT22;1747;48.884;9.160;2023-04-01T04:56:08;9.70;99.90
3466;DHT22;1747;48.884;9.160;2023-04-01T04:58:35;9.60;99.90
3466;DHT22;1747;48.884;9.160;2023-04-01T05:01:06;9.60;99.90
3466;DHT22;1747;48.884;9.160;2023-04-01T05:03:34;9.60;99.90
3466;DHT22;1747;48.884;9.160;2023-04-01T05:06:01;9.60;99.90
3466;DHT22;1747;48.884;9.160;2023-04-01T05:08:28;9.60;99.90
3466;DHT22;1747;48.884;9.160;2023-04-01T05:10:55;9.60;99.90
3466;DHT22;1747;48.884;9.160;2023-04-01T05:13:22;9.60;99.90
3466;DHT22;1747;48.884;9.160;2023-04-01T05:15:49;9.60;99.90
3466;DHT22;1747;48.884;9.160;2023-04-01T05:18:16;9.60;99.90
3466;DHT22;1747;48.884;9.160;2023-04-01T05:20:48;9.60;99.90
3466;DHT22;1747;48.884;9.160;2023-04-01T05:23:15;9.60;99.90
3466;DHT22;1747;48.884;9.160;2023-04-01T05:25:42;9.60;99.90
3466;DHT22;1747;48.884;9.160;2023-04-01T05:28:10;9.70;99.90
3466;DHT22;1747;48.884;9.160;2023-04-01T05:30:39;9.60;99.90
3466;DHT22;1747;48.884;9.160;2023-04-01T05:33:06;9.70;99.90
3466;DHT22;1747;48.884;9.160;2023-04-01T05:35:33;9.70;99.90
3466;DHT22;1747;48.884;9.160;2023-04-01T05:38:02;9.80;99.90
3466;DHT22;1747;48.884;9.160;2023-04-01T05:40:29;9.80;99.90
3466;DHT22;1747;48.884;9.160;2023-04-01T05:42:56;9.70;99.90
3466;DHT22;1747;48.884;9.160;2023-04-01T05:45:23;9.80;99.90
3466;DHT22;1747;48.884;9.160;2023-04-01T05:47:50;9.70;99.90
3466;DHT22;1747;48.884;9.160;2023-04-01T05:50:17;9.80;99.90
3466;DHT22;1747;48.884;9.160;2023-04-01T05:52:44;9.80;99.90
3466;DHT22;1747;48.884;9.160;2023-04-01T05:55:12;9.80;99.90
3466;DHT22;1747;48.884;9.160;2023-04-01T05:57:39;10.00;99.90
3466;DHT22;1747;48.884;9.160;2023-04-01T06:00:07;10.00;99.90
3466;DHT22;1747;48.884;9.160;2023-04-01T06:02:34;10.10;99.90
3466;DHT22;1747;48.884;9.160;2023-04-01T06:05:11;10.10;99.90
3466;DHT22;1747;48.884;9.160;2023-04-01T06:07:38;10.30;99.90
3466;DHT22;1747;48.884;9.160;2023-04-01T06:10:13;10.30;99.90
3466;DHT22;1747;48.884;9.160;2023-04-01T06:12:48;10.20;99.90
3466;DHT22;1747;48.884;9.160;2023-04-01T06:15:23;10.30;99.90
3466;DHT22;1747;48.884;9.160;2023-04-01T06:18:15;10.40;99.90
3466;DHT22;1747;48.884;9.160;2023-04-01T06:20:50;10.40;99.90
3466;DHT22;1747;48.884;9.160;2023-04-01T06:23:42;10.40;99.90
3466;DHT22;1747;48.884;9.160;2023-04-01T06:26:25;10.50;99.90
3466;DHT22;1747;48.884;9.160;2023-04-01T06:29:06;10.50;99.90
3466;DHT22;1747;48.884;9.160;2023-04-01T06:31:57;10.50;99.90
3466;DHT22;1747;48.884;9.160;2023-04-01T06:34:43;10.60;99.90
3466;DHT22;1747;48.884;9.160;2023-04-01T06:37:23;10.60;99.90
3466;DHT22;1747;48.884;9.160;2023-04-01T06:40:02;10.60;99.90
3466;DHT22;1747;48.884;9.160;2023-04-01T06:42:39;10.60;99.90
3466;DHT22;1747;48.884;9.160;2023-04-01T06:45:20;10.50;99.90
3466;DHT22;1747;48.884;9.160;2023-04-01T06:48:00;10.60;99.90
3466;DHT22;1747;48.884;9.160;2023-04-01T06:50:31;10.60;99.90
3466;DHT22;1747;48.884;9.160;2023-04-01T06:53:06;10.60;99.90
3466;DHT22;1747;48.884;9.160;2023-04-01T06:55:41;10.60;99.90
3466;DHT22;1747;48.884;9.160;2023-04-01T06:58:19;10.70;99.90
3466;DHT22;1747;48.884;9.160;2023-04-01T07:00:49;10.60;99.90
3466;DHT22;1747;48.884;9.160;2023-04-01T07:03:21;10.60;99.90
3466;DHT22;1747;48.884;9.160;2023-04-01T07:05:49;10.60;99.90
3466;DHT22;1747;48.884;9.160;2023-04-01T07:08:19;10.50;99.90
3466;DHT22;1747;48.884;9.160;2023-04-01T07:10:50;10.50;99.90
3466;DHT22;1747;48.884;9.160;2023-04-01T07:13:24;10.50;99.90
3466;DHT22;1747;48.884;9.160;2023-04-01T07:15:58;10.60;99.90
3466;DHT22;1747;48.884;9.160;2023-04-01T07:18:32;10.70;99.90
3466;DHT22;1747;48.884;9.160;2023-04-01T07:21:01;10.70;99.90
3466;DHT22;1747;48.884;9.160;2023-04-01T07:23:31;10.60;99.90
3466;DHT22;1747;48.884;9.160;2023-04-01T07:26:01;10.60;99.90
3466;DHT22;1747;48.884;9.160;2023-04-01T07:28:32;10.70;99.90
3466;DHT22;1747;48.884;9.160;2023-04-01T07:31:07;10.60;99.90
3466;DHT22;1747;48.884;9.160;2023-04-01T07:33:41;10.60;99.90
3466;DHT22;1747;48.884;9.160;2023-04-01T07:36:14;10.60;99.90
3466;DHT22;1747;48.884;9.160;2023-04-01T07:38:54;10.60;99.90
3466;DHT22;1747;48.884;9.160;2023-04-01T07:41:29;10.60;99.90
3466;DHT22;1747;48.884;9.160;2023-04-01T07:44:06;10.70;99.90
3466;DHT22;1747;48.884;9.160;2023-04-01T07:46:57;10.60;99.90
3466;DHT22;1747;48.884;9.160;2023-04-01T07:49:30;10.70;99.90
3466;DHT22;1747;48.884;9.160;2023-04-01T07:52:08;10.70;99.90
3466;DHT22;1747;48.884;9.160;2023-04-01T07:54:42;10.70;99.90
3466;DHT22;1747;48.884;9.160;2023-04-01T07:57:16;10.80;99.90
3466;DHT22;1747;48.884;9.160;2023-04-01T07:59:56;10.80;99.90
3466;DHT22;1747;48.884;9.160;2023-04-01T08:02:32;10.80;99.90
3466;DHT22;1747;48.884;9.160;2023-04-01T08:05:08;10.80;99.90
3466;DHT22;1747;48.884;9.160;2023-04-01T08:07:45;10.90;99.90
3466;DHT22;1747;48.884;9.160;2023-04-01T08:10:19;11.00;99.90
3466;DHT22;1747;48.884;9.160;2023-04-01T08:12:57;11.10;99.90
3466;DHT22;1747;48.884;9.160;2023-04-01T08:15:36;11.10;99.90
3466;DHT22;1747;48.884;9.160;2023-04-01T08:18:14;11.10;99.90
3466;DHT22;1747;48.884;9.160;2023-04-01T08:20:47;11.10;99.90
3466;DHT22;1747;48.884;9.160;2023-04-01T08:23:17;11.10;99.90
3466;DHT22;1747;48.884;9.160;2023-04-01T08:25:49;11.10;99.90
3466;DHT22;1747;48.884;9.160;2023-04-01T08:28:21;11.10;99.90
3466;DHT22;1747;48.884;9.160;2023-04-01T08:30:55;11.10;99.90
3466;DHT22;1747;48.884;9.160;2023-04-01T08:33:25;11.20;99.90
3466;DHT22;1747;48.884;9.160;2023-04-01T08:35:56;11.30;99.90
3466;DHT22;1747;48.884;9.160;2023-04-01T08:38:29;11.40;99.90
3466;DHT22;1747;48.884;9.160;2023-04-01T08:41:05;11.50;99.90
3466;DHT22;1747;48.884;9.160;2023-04-01T08:46:55;11.50;99.90
3466;DHT22;1747;48.884;9.160;2023-04-01T08:49:41;11.30;99.90
3466;DHT22;1747;48.884;9.160;2023-04-01T08:52:34;11.00;99.90
3466;DHT22;1747;48.884;9.160;2023-04-01T08:57:56;10.70;99.90
3466;DHT22;1747;48.884;9.160;2023-04-01T09:00:31;10.50;99.90
3466;DHT22;1747;48.884;9.160;2023-04-01T09:03:22;10.40;99.90
3466;DHT22;1747;48.884;9.160;2023-04-01T09:06:29;10.40;99.90
3466;DHT22;1747;48.884;9.160;2023-04-01T09:09:26;10.40;99.90
3466;DHT22;1747;48.884;9.160;2023-04-01T09:12:31;10.40;99.90
3466;DHT22;1747;48.884;9.160;2023-04-01T09:15:20;10.40;99.90
3466;DHT22;1747;48.884;9.160;2023-04-01T09:18:21;10.40;99.90
3466;DHT22;1747;48.884;9.160;2023-04-01T09:21:01;10.50;99.90
3466;DHT22;1747;48.884;9.160;2023-04-01T09:23:54;10.60;99.90
3466;DHT22;1747;48.884;9.160;2023-04-01T09:29:25;10.80;99.90
3466;DHT22;1747;48.884;9.160;2023-04-01T09:32:17;10.90;99.90
3466;DHT22;1747;48.884;9.160;2023-04-01T09:34:55;11.00;99.90
3466;DHT22;1747;48.884;9.160;2023-04-01T09:37:34;11.00;99.90
3466;DHT22;1747;48.884;9.160;2023-04-01T09:40:16;10.90;99.90
3466;DHT22;1747;48.884;9.160;2023-04-01T09:42:48;10.80;99.90
3466;DHT22;1747;48.884;9.160;2023-04-01T09:45:41;10.90;99.90
3466;DHT22;1747;48.884;9.160;2023-04-01T09:51:12;11.20;99.90
3466;DHT22;1747;48.884;9.160;2023-04-01T09:53:48;11.20;99.90
3466;DHT22;1747;48.884;9.160;2023-04-01T09:56:58;11.20;99.90
3466;DHT22;1747;48.884;9.160;2023-04-01T09:59:53;11.30;99.90
3466;DHT22;1747;48.884;9.160;2023-04-01T10:02:50;11.40;99.90
3466;DHT22;1747;48.884;9.160;2023-04-01T10:05:54;11.40;99.90
3466;DHT22;1747;48.884;9.160;2023-04-01T10:08:49;11.50;99.90
3466;DHT22;1747;48.884;9.160;2023-04-01T10:11:52;11.60;99.90
3466;DHT22;1747;48.884;9.160;2023-04-01T10:14:52;11.50;99.90
3466;DHT22;1747;48.884;9.160;2023-04-01T10:17:48;11.40;99.90
3466;DHT22;1747;48.884;9.160;2023-04-01T10:20:54;11.50;99.90
3466;DHT22;1747;48.884;9.160;2023-04-01T10:23:44;11.50;99.90
3466;DHT22;1747;48.884;9.160;2023-04-01T10:29:58;11.50;99.90
3466;DHT22;1747;48.884;9.160;2023-04-01T10:32:47;11.50;99.90
3466;DHT22;1747;48.884;9.160;2023-04-01T10:45:30;11.50;99.90
3466;DHT22;1747;48.884;9.160;2023-04-01T10:48:13;11.50;99.90
3466;DHT22;1747;48.884;9.160;2023-04-01T10:51:14;11.50;99.90
3466;DHT22;1747;48.884;9.160;2023-04-01T10:53:52;11.60;99.90
3466;DHT22;1747;48.884;9.160;2023-04-01T10:56:54;11.50;99.90
3466;DHT22;1747;48.884;9.160;2023-04-01T11:08:58;11.60;99.90
3466;DHT22;1747;48.884;9.160;2023-04-01T11:11:59;11.70;99.90
3466;DHT22;1747;48.884;9.160;2023-04-01T11:14:59;11.60;99.90
3466;DHT22;1747;48.884;9.160;2023-04-01T11:18:16;11.70;99.90
3466;DHT22;1747;48.884;9.160;2023-04-01T11:21:29;11.70;99.90
3466;DHT22;1747;48.884;9.160;2023-04-01T11:24:36;11.80;99.90
3466;DHT22;1747;48.884;9.160;2023-04-01T11:27:23;12.00;99.90
3466;DHT22;1747;48.884;9.160;2023-04-01T11:30:16;11.90;99.90
3466;DHT22;1747;48.884;9.160;2023-04-01T11:33:00;12.00;99.90
3466;DHT22;1747;48.884;9.160;2023-04-01T11:35:47;12.00;99.90
3466;DHT22;1747;48.884;9.160;2023-04-01T11:38:24;12.00;99.90
3466;DHT22;1747;48.884;9.160;2023-04-01T11:40:59;12.10;99.90
3466;DHT22;1747;48.884;9.160;2023-04-01T11:43:36;12.20;99.90
3466;DHT22;1747;48.884;9.160;2023-04-01T11:46:10;12.30;99.90
3466;DHT22;1747;48.884;9.160;2023-04-01T11:48:58;12.30;99.90
3466;DHT22;1747;48.884;9.160;2023-04-01T11:52:06;12.40;99.90
3466;DHT22;1747;48.884;9.160;2023-04-01T11:54:54;12.60;99.90
3466;DHT22;1747;48.884;9.160;2023-04-01T11:57:37;12.70;99.90
3466;DHT22;1747;48.884;9.160;2023-04-01T12:00:26;12.80;99.90
3466;DHT22;1747;48.884;9.160;2023-04-01T12:03:13;12.90;99.90
3466;DHT22;1747;48.884;9.160;2023-04-01T12:05:48;12.90;99.90
3466;DHT22;1747;48.884;9.160;2023-04-01T12:08:25;12.90;99.90
3466;DHT22;1747;48.884;9.160;2023-04-01T12:10:59;12.80;99.90
3466;DHT22;1747;48.884;9.160;2023-04-01T12:13:36;12.60;99.90
3466;DHT22;1747;48.884;9.160;2023-04-01T12:16:17;12.50;99.90
3466;DHT22;1747;48.884;9.160;2023-04-01T12:18:52;12.50;99.90
3466;DHT22;1747;48.884;9.160;2023-04-01T12:21:26;12.50;99.90
3466;DHT22;1747;48.884;9.160;2023-04-01T12:24:22;12.60;99.90
3466;DHT22;1747;48.884;9.160;2023-04-01T12:27:05;12.70;99.90
3466;DHT22;1747;48.884;9.160;2023-04-01T12:29:48;12.80;99.90
3466;DHT22;1747;48.884;9.160;2023-04-01T12:32:23;12.90;99.90
3466;DHT22;1747;48.884;9.160;2023-04-01T12:35:17;12.90;99.90
3466;DHT22;1747;48.884;9.160;2023-04-01T12:37:54;13.00;99.90
3466;DHT22;1747;48.884;9.160;2023-04-01T12:41:00;12.90;99.90
3466;DHT22;1747;48.884;9.160;2023-04-01T12:43:56;12.90;99.90
3466;DHT22;1747;48.884;9.160;2023-04-01T12:46:30;12.80;99.90
3466;DHT22;1747;48.884;9.160;2023-04-01T12:49:50;12.70;99.90
3466;DHT22;1747;48.884;9.160;2023-04-01T12:52:25;12.70;99.90
3466;DHT22;1747;48.884;9.160;2023-04-01T12:55:14;12.60;99.90
3466;DHT22;1747;48.884;9.160;2023-04-01T12:58:06;12.60;99.90
3466;DHT22;1747;48.884;9.160;2023-04-01T13:00:50;12.70;99.90
3466;DHT22;1747;48.884;9.160;2023-04-01T13:03:47;12.60;99.90
3466;DHT22;1747;48.884;9.160;2023-04-01T13:06:31;12.60;99.90
3466;DHT22;1747;48.884;9.160;2023-04-01T13:09:09;12.60;99.90
3466;DHT22;1747;48.884;9.160;2023-04-01T13:11:51;12.60;99.90
3466;DHT22;1747;48.884;9.160;2023-04-01T13:14:50;12.70;99.90
3466;DHT22;1747;48.884;9.160;2023-04-01T13:17:23;12.80;99.90
3466;DHT22;1747;48.884;9.160;2023-04-01T13:19:57;12.70;99.90
3466;DHT22;1747;48.884;9.160;2023-04-01T13:22:32;12.40;99.90
3466;DHT22;1747;48.884;9.160;2023-04-01T13:25:03;12.20;99.90
3466;DHT22;1747;48.884;9.160;2023-04-01T13:27:35;12.00;99.90
3466;DHT22;1747;48.884;9.160;2023-04-01T13:30:20;12.00;99.90
3466;DHT22;1747;48.884;9.160;2023-04-01T13:32:56;12.00;99.90
3466;DHT22;1747;48.884;9.160;2023-04-01T13:35:31;12.00;99.90
3466;DHT22;1747;48.884;9.160;2023-04-01T13:38:29;12.10;99.90
3466;DHT22;1747;48.884;9.160;2023-04-01T13:41:03;12.10;99.90
3466;DHT22;1747;48.884;9.160;2023-04-01T13:43:35;12.00;99.90
3466;DHT22;1747;48.884;9.160;2023-04-01T13:46:33;12.00;99.90
3466;DHT22;1747;48.884;9.160;2023-04-01T13:49:19;12.10;99.90
3466;DHT22;1747;48.884;9.160;2023-04-01T13:52:14;12.10;99.90
3466;DHT22;1747;48.884;9.160;2023-04-01T13:55:14;12.10;99.90
3466;DHT22;1747;48.884;9.160;2023-04-01T13:58:05;11.90;99.90
3466;DHT22;1747;48.884;9.160;2023-04-01T14:00:45;11.90;99.90
3466;DHT22;1747;48.884;9.160;2023-04-01T14:06:27;11.70;99.90
3466;DHT22;1747;48.884;9.160;2023-04-01T14:09:15;11.70;99.90
3466;DHT22;1747;48.884;9.160;2023-04-01T14:11:53;11.70;99.90
3466;DHT22;1747;48.884;9.160;2023-04-01T14:14:32;11.80;99.90
3466;DHT22;1747;48.884;9.160;2023-04-01T14:20:14;11.90;99.90
3466;DHT22;1747;48.884;9.160;2023-04-01T14:22:49;11.90;99.90
3466;DHT22;1747;48.884;9.160;2023-04-01T14:25:55;12.00;99.90
3466;DHT22;1747;48.884;9.160;2023-04-01T14:28:29;12.10;99.90
3466;DHT22;1747;48.884;9.160;2023-04-01T14:31:21;11.90;99.90
3466;DHT22;1747;48.884;9.160;2023-04-01T14:33:59;11.80;99.90
3466;DHT22;1747;48.884;9.160;2023-04-01T14:36:41;11.70;99.90
3466;DHT22;1747;48.884;9.160;2023-04-01T14:39:43;11.70;99.90
3466;DHT22;1747;48.884;9.160;2023-04-01T14:42:21;11.60;99.90
3466;DHT22;1747;48.884;9.160;2023-04-01T14:45:07;11.60;99.90
3466;DHT22;1747;48.884;9.160;2023-04-01T14:47:48;11.70;99.90
3466;DHT22;1747;48.884;9.160;2023-04-01T14:50:18;11.70;99.90
3466;DHT22;1747;48.884;9.160;2023-04-01T14:52:57;11.60;99.90
3466;DHT22;1747;48.884;9.160;2023-04-01T14:55:31;11.60;99.90
3466;DHT22;1747;48.884;9.160;2023-04-01T14:58:10;11.70;99.90
3466;DHT22;1747;48.884;9.160;2023-04-01T15:00:48;11.80;99.90
3466;DHT22;1747;48.884;9.160;2023-04-01T15:03:19;11.90;99.90
3466;DHT22;1747;48.884;9.160;2023-04-01T15:05:49;11.90;99.90
3466;DHT22;1747;48.884;9.160;2023-04-01T15:08:21;12.00;99.90
3466;DHT22;1747;48.884;9.160;2023-04-01T15:11:03;12.20;99.90
3466;DHT22;1747;48.884;9.160;2023-04-01T15:13:56;12.30;99.90
3466;DHT22;1747;48.884;9.160;2023-04-01T15:16:31;12.30;99.90
3466;DHT22;1747;48.884;9.160;2023-04-01T15:19:09;12.40;99.90
3466;DHT22;1747;48.884;9.160;2023-04-01T15:21:50;12.40;99.90
3466;DHT22;1747;48.884;9.160;2023-04-01T15:24:23;12.40;99.90
3466;DHT22;1747;48.884;9.160;2023-04-01T15:27:08;12.50;99.90
3466;DHT22;1747;48.884;9.160;2023-04-01T15:30:00;12.50;99.90
3466;DHT22;1747;48.884;9.160;2023-04-01T15:32:42;12.50;99.90
3466;DHT22;1747;48.884;9.160;2023-04-01T15:35:19;12.50;99.90
3466;DHT22;1747;48.884;9.160;2023-04-01T15:37:54;12.50;99.90
3466;DHT22;1747;48.884;9.160;2023-04-01T15:40:24;12.40;99.90
3466;DHT22;1747;48.884;9.160;2023-04-01T15:43:11;12.30;99.90
3466;DHT22;1747;48.884;9.160;2023-04-01T15:45:56;12.20;99.90
3466;DHT22;1747;48.884;9.160;2023-04-01T15:48:35;12.00;99.90
3466;DHT22;1747;48.884;9.160;2023-04-01T15:51:31;12.00;99.90
3466;DHT22;1747;48.884;9.160;2023-04-01T15:57:00;12.10;99.90
3466;DHT22;1747;48.884;9.160;2023-04-01T15:59:43;12.10;99.90
3466;DHT22;1747;48.884;9.160;2023-04-01T16:02:20;12.10;99.90
3466;DHT22;1747;48.884;9.160;2023-04-01T16:04:54;12.10;99.90
3466;DHT22;1747;48.884;9.160;2023-04-01T16:07:37;12.00;99.90
3466;DHT22;1747;48.884;9.160;2023-04-01T16:10:36;12.00;99.90
3466;DHT22;1747;48.884;9.160;2023-04-01T16:16:07;11.90;99.90
3466;DHT22;1747;48.884;9.160;2023-04-01T16:18:54;12.00;99.90
3466;DHT22;1747;48.884;9.160;2023-04-01T16:21:38;12.00;99.90
3466;DHT22;1747;48.884;9.160;2023-04-01T16:24:20;11.90;99.90
3466;DHT22;1747;48.884;9.160;2023-04-01T16:26:52;11.90;99.90
3466;DHT22;1747;48.884;9.160;2023-04-01T16:29:27;11.90;99.90
3466;DHT22;1747;48.884;9.160;2023-04-01T16:32:12;11.90;99.90
3466;DHT22;1747;48.884;9.160;2023-04-01T16:34:45;11.80;99.90
3466;DHT22;1747;48.884;9.160;2023-04-01T16:37:19;11.80;99.90
3466;DHT22;1747;48.884;9.160;2023-04-01T16:39:52;11.80;99.90
3466;DHT22;1747;48.884;9.160;2023-04-01T16:42:28;11.70;99.90
3466;DHT22;1747;48.884;9.160;2023-04-01T16:45:01;11.70;99.90
3466;DHT22;1747;48.884;9.160;2023-04-01T16:47:31;11.70;99.90
3466;DHT22;1747;48.884;9.160;2023-04-01T16:50:05;11.70;99.90
3466;DHT22;1747;48.884;9.160;2023-04-01T16:52:51;11.70;99.90
3466;DHT22;1747;48.884;9.160;2023-04-01T16:55:34;11.70;99.90
3466;DHT22;1747;48.884;9.160;2023-04-01T16:58:01;11.70;99.90
3466;DHT22;1747;48.884;9.160;2023-04-01T17:00:30;11.80;99.90
3466;DHT22;1747;48.884;9.160;2023-04-01T17:03:11;11.90;99.90
3466;DHT22;1747;48.884;9.160;2023-04-01T17:08:51;12.00;99.90
3466;DHT22;1747;48.884;9.160;2023-04-01T17:11:24;12.00;99.90
3466;DHT22;1747;48.884;9.160;2023-04-01T17:14:01;12.00;99.90
3466;DHT22;1747;48.884;9.160;2023-04-01T17:16:52;12.00;99.90
3466;DHT22;1747;48.884;9.160;2023-04-01T17:19:32;12.00;99.90
3466;DHT22;1747;48.884;9.160;2023-04-01T17:22:07;11.90;99.90
3466;DHT22;1747;48.884;9.160;2023-04-01T17:24:51;11.90;99.90
3466;DHT22;1747;48.884;9.160;2023-04-01T17:27:29;11.90;99.90
3466;DHT22;1747;48.884;9.160;2023-04-01T17:30:15;11.90;99.90
3466;DHT22;1747;48.884;9.160;2023-04-01T17:32:54;11.80;99.90
3466;DHT22;1747;48.884;9.160;2023-04-01T17:35:27;11.70;99.90
3466;DHT22;1747;48.884;9.160;2023-04-01T17:38:06;11.70;99.90
3466;DHT22;1747;48.884;9.160;2023-04-01T17:40:48;11.70;99.90
3466;DHT22;1747;48.884;9.160;2023-04-01T17:43:24;11.70;99.90
3466;DHT22;1747;48.884;9.160;2023-04-01T17:45:54;11.70;99.90
3466;DHT22;1747;48.884;9.160;2023-04-01T17:48:34;11.70;99.90
3466;DHT22;1747;48.884;9.160;2023-04-01T17:51:17;11.70;99.90
3466;DHT22;1747;48.884;9.160;2023-04-01T17:53:51;11.80;99.90
3466;DHT22;1747;48.884;9.160;2023-04-01T17:56:34;11.90;99.90
3466;DHT22;1747;48.884;9.160;2023-04-01T17:59:13;11.80;99.90